sensor_id;sensor_type;location;lat;lon;timestamp;temperature;humidity
72380;SHT30;60354;47.798;12.472;2024-01-07T00:01:54;2.09;91.54
72380;SHT30;60354;47.798;12.472;2024-01-07T00:04:20;2.10;92.02
72380;SHT30;60354;47.798;12.472;2024-01-07T00:06:46;2.10;91.75
72380;SHT30;60354;47.798;12.472;2024-01-07T00:09:12;2.07;91.85
72380;SHT30;60354;47.798;12.472;2024-01-07T00:11:38;2.03;91.83
72380;SHT30;60354;47.798;12.472;2024-01-07T00:14:04;2.07;91.70
72380;SHT30;60354;47.798;12.472;2024-01-07T00:16:29;2.02;91.55
72380;SHT30;60354;47.798;12.472;2024-01-07T00:18:55;2.07;92.02
72380;SHT30;60354;47.798;12.472;2024-01-07T00:21:20;2.10;91.87
72380;SHT30;60354;47.798;12.472;2024-01-07T00:23:46;2.07;91.44
72380;SHT30;60354;47.798;12.472;2024-01-07T00:26:11;2.10;91.85
72380;SHT30;60354;47.798;12.472;2024-01-07T00:28:37;2.06;92.11
72380;SHT30;60354;47.798;12.472;2024-01-07T00:31:03;2.01;92.27
72380;SHT30;60354;47.798;12.472;2024-01-07T00:33:31;2.02;92.81
72380;SHT30;60354;47.798;12.472;2024-01-07T00:35:56;2.03;92.19
72380;SHT30;60354;47.798;12.472;2024-01-07T00:38:22;2.01;92.30
72380;SHT30;60354;47.798;12.472;2024-01-07T00:40:47;2.05;91.87
72380;SHT30;60354;47.798;12.472;2024-01-07T00:43:13;2.01;91.96
72380;SHT30;60354;47.798;12.472;2024-01-07T00:45:39;2.12;91.73
72380;SHT30;60354;47.798;12.472;2024-01-07T00:48:05;2.10;91.88
72380;SHT30;60354;47.798;12.472;2024-01-07T00:50:30;2.07;91.79
72380;SHT30;60354;47.798;12.472;2024-01-07T00:52:56;2.13;91.31
72380;SHT30;60354;47.798;12.472;2024-01-07T00:55:21;2.10;91.37
72380;SHT30;60354;47.798;12.472;2024-01-07T00:57:49;2.09;91.75
72380;SHT30;60354;47.798;12.472;2024-01-07T01:00:15;1.96;92.16
72380;SHT30;60354;47.798;12.472;2024-01-07T01:02:41;1.96;92.29
72380;SHT30;60354;47.798;12.472;2024-01-07T01:05:07;2.01;91.96
72380;SHT30;60354;47.798;12.472;2024-01-07T01:07:32;2.03;92.08
72380;SHT30;60354;47.798;12.472;2024-01-07T01:09:58;2.03;91.89
72380;SHT30;60354;47.798;12.472;2024-01-07T01:12:23;2.02;92.09
72380;SHT30;60354;47.798;12.472;2024-01-07T01:14:49;2.02;92.21
72380;SHT30;60354;47.798;12.472;2024-01-07T01:17:15;2.02;91.90
72380;SHT30;60354;47.798;12.472;2024-01-07T01:19:40;1.98;92.14
72380;SHT30;60354;47.798;12.472;2024-01-07T01:22:06;1.98;92.24
72380;SHT30;60354;47.798;12.472;2024-01-07T01:24:31;2.01;92.37
72380;SHT30;60354;47.798;12.472;2024-01-07T01:26:57;2.02;91.99
72380;SHT30;60354;47.798;12.472;2024-01-07T01:29:22;2.02;92.04
72380;SHT30;60354;47.798;12.472;2024-01-07T01:31:48;2.06;92.01
72380;SHT30;60354;47.798;12.472;2024-01-07T01:34:13;2.02;91.99
72380;SHT30;60354;47.798;12.472;2024-01-07T01:36:39;2.05;92.16
72380;SHT30;60354;47.798;12.472;2024-01-07T01:39:05;2.02;92.15
72380;SHT30;60354;47.798;12.472;2024-01-07T01:41:30;2.05;91.96
72380;SHT30;60354;47.798;12.472;2024-01-07T01:43:58;2.03;91.85
72380;SHT30;60354;47.798;12.472;2024-01-07T01:46:24;2.01;92.31
72380;SHT30;60354;47.798;12.472;2024-01-07T01:48:50;1.91;92.78
72380;SHT30;60354;47.798;12.472;2024-01-07T01:51:16;1.98;92.45
72380;SHT30;60354;47.798;12.472;2024-01-07T01:53:42;1.96;92.34
72380;SHT30;60354;47.798;12.472;2024-01-07T01:56:08;2.01;92.58
72380;SHT30;60354;47.798;12.472;2024-01-07T01:58:34;2.01;92.45
72380;SHT30;60354;47.798;12.472;2024-01-07T02:00:59;1.99;92.12
72380;SHT30;60354;47.798;12.472;2024-01-07T02:03:25;2.03;92.41
72380;SHT30;60354;47.798;12.472;2024-01-07T02:05:52;2.01;92.19
72380;SHT30;60354;47.798;12.472;2024-01-07T02:08:19;2.07;91.94
72380;SHT30;60354;47.798;12.472;2024-01-07T02:10:44;2.01;92.19
72380;SHT30;60354;47.798;12.472;2024-01-07T02:13:10;2.06;92.16
72380;SHT30;60354;47.798;12.472;2024-01-07T02:15:36;2.06;91.94
72380;SHT30;60354;47.798;12.472;2024-01-07T02:18:01;2.07;91.84
72380;SHT30;60354;47.798;12.472;2024-01-07T02:20:27;2.06;92.09
72380;SHT30;60354;47.798;12.472;2024-01-07T02:22:53;2.02;92.03
72380;SHT30;60354;47.798;12.472;2024-01-07T02:25:18;2.05;92.02
72380;SHT30;60354;47.798;12.472;2024-01-07T02:27:44;2.06;92.19
72380;SHT30;60354;47.798;12.472;2024-01-07T02:30:10;2.05;92.26
72380;SHT30;60354;47.798;12.472;2024-01-07T02:32:35;2.03;92.15
72380;SHT30;60354;47.798;12.472;2024-01-07T02:35:03;2.07;91.98
72380;SHT30;60354;47.798;12.472;2024-01-07T02:37:29;1.96;91.72
72380;SHT30;60354;47.798;12.472;2024-01-07T02:39:54;1.99;92.28
72380;SHT30;60354;47.798;12.472;2024-01-07T02:42:20;2.06;92.02
72380;SHT30;60354;47.798;12.472;2024-01-07T02:44:45;2.06;91.94
72380;SHT30;60354;47.798;12.472;2024-01-07T02:47:11;2.02;91.84
72380;SHT30;60354;47.798;12.472;2024-01-07T02:49:36;2.06;91.71
72380;SHT30;60354;47.798;12.472;2024-01-07T02:52:02;2.09;91.91
72380;SHT30;60354;47.798;12.472;2024-01-07T02:54:27;2.12;91.54
72380;SHT30;60354;47.798;12.472;2024-01-07T02:56:53;2.12;91.42
72380;SHT30;60354;47.798;12.472;2024-01-07T02:59:18;2.07;91.66
72380;SHT30;60354;47.798;12.472;2024-01-07T03:01:44;1.99;92.16
72380;SHT30;60354;47.798;12.472;2024-01-07T03:04:15;2.01;92.34
72380;SHT30;60354;47.798;12.472;2024-01-07T03:06:40;1.99;92.42
72380;SHT30;60354;47.798;12.472;2024-01-07T03:09:06;2.02;91.96
72380;SHT30;60354;47.798;12.472;2024-01-07T03:11:32;2.03;92.12
72380;SHT30;60354;47.798;12.472;2024-01-07T03:13:58;2.09;91.96
72380;SHT30;60354;47.798;12.472;2024-01-07T03:16:25;2.06;91.94
72380;SHT30;60354;47.798;12.472;2024-01-07T03:18:51;2.07;92.05
72380;SHT30;60354;47.798;12.472;2024-01-07T03:21:22;2.01;92.14
72380;SHT30;60354;47.798;12.472;2024-01-07T03:23:48;2.01;92.07
72380;SHT30;60354;47.798;12.472;2024-01-07T03:26:15;2.02;92.35
72380;SHT30;60354;47.798;12.472;2024-01-07T03:28:41;1.95;92.17
72380;SHT30;60354;47.798;12.472;2024-01-07T03:31:09;1.95;92.58
72380;SHT30;60354;47.798;12.472;2024-01-07T03:33:37;1.96;92.71
72380;SHT30;60354;47.798;12.472;2024-01-07T03:36:07;1.95;92.77
72380;SHT30;60354;47.798;12.472;2024-01-07T03:38:33;1.94;92.51
72380;SHT30;60354;47.798;12.472;2024-01-07T03:40:58;1.98;92.47
72380;SHT30;60354;47.798;12.472;2024-01-07T03:43:24;1.96;92.34
72380;SHT30;60354;47.798;12.472;2024-01-07T03:45:49;2.03;92.32
72380;SHT30;60354;47.798;12.472;2024-01-07T03:48:15;2.09;91.76
72380;SHT30;60354;47.798;12.472;2024-01-07T03:50:40;2.03;92.30
72380;SHT30;60354;47.798;12.472;2024-01-07T03:53:06;2.02;91.84
72380;SHT30;60354;47.798;12.472;2024-01-07T03:55:31;2.07;91.98
72380;SHT30;60354;47.798;12.472;2024-01-07T03:57:57;2.06;92.30
72380;SHT30;60354;47.798;12.472;2024-01-07T04:00:22;2.03;92.13
72380;SHT30;60354;47.798;12.472;2024-01-07T04:02:47;2.05;92.04
72380;SHT30;60354;47.798;12.472;2024-01-07T04:05:13;2.10;91.70
72380;SHT30;60354;47.798;12.472;2024-01-07T04:07:40;2.05;92.01
72380;SHT30;60354;47.798;12.472;2024-01-07T04:10:06;2.10;91.93
72380;SHT30;60354;47.798;12.472;2024-01-07T04:12:32;2.05;91.89
72380;SHT30;60354;47.798;12.472;2024-01-07T04:14:58;2.07;91.49
72380;SHT30;60354;47.798;12.472;2024-01-07T04:17:24;2.05;92.23
72380;SHT30;60354;47.798;12.472;2024-01-07T04:19:49;2.07;91.56
72380;SHT30;60354;47.798;12.472;2024-01-07T04:22:15;2.07;92.06
72380;SHT30;60354;47.798;12.472;2024-01-07T04:24:41;2.03;91.36
72380;SHT30;60354;47.798;12.472;2024-01-07T04:27:07;2.09;91.47
72380;SHT30;60354;47.798;12.472;2024-01-07T04:29:32;2.09;91.61
72380;SHT30;60354;47.798;12.472;2024-01-07T04:31:58;2.09;91.71
72380;SHT30;60354;47.798;12.472;2024-01-07T04:34:23;2.03;91.74
72380;SHT30;60354;47.798;12.472;2024-01-07T04:36:50;2.05;91.86
72380;SHT30;60354;47.798;12.472;2024-01-07T04:39:15;2.06;91.80
72380;SHT30;60354;47.798;12.472;2024-01-07T04:41:41;2.03;92.10
72380;SHT30;60354;47.798;12.472;2024-01-07T04:44:06;2.03;91.93
72380;SHT30;60354;47.798;12.472;2024-01-07T04:46:38;2.02;92.26
72380;SHT30;60354;47.798;12.472;2024-01-07T04:49:04;1.96;92.32
72380;SHT30;60354;47.798;12.472;2024-01-07T04:51:31;1.96;92.27
72380;SHT30;60354;47.798;12.472;2024-01-07T04:53:57;1.98;92.22
72380;SHT30;60354;47.798;12.472;2024-01-07T04:56:22;1.98;91.94
72380;SHT30;60354;47.798;12.472;2024-01-07T04:58:48;1.98;92.04
72380;SHT30;60354;47.798;12.472;2024-01-07T05:01:13;2.01;92.14
72380;SHT30;60354;47.798;12.472;2024-01-07T05:03:39;1.99;92.21
72380;SHT30;60354;47.798;12.472;2024-01-07T05:06:04;2.02;92.15
72380;SHT30;60354;47.798;12.472;2024-01-07T05:08:30;2.03;92.25
72380;SHT30;60354;47.798;12.472;2024-01-07T05:10:56;2.01;91.97
72380;SHT30;60354;47.798;12.472;2024-01-07T05:13:22;2.02;92.20
72380;SHT30;60354;47.798;12.472;2024-01-07T05:15:47;2.07;91.83
72380;SHT30;60354;47.798;12.472;2024-01-07T05:18:23;2.02;91.81
72380;SHT30;60354;47.798;12.472;2024-01-07T05:20:49;2.03;91.85
72380;SHT30;60354;47.798;12.472;2024-01-07T05:23:15;2.02;92.26
72380;SHT30;60354;47.798;12.472;2024-01-07T05:25:42;2.06;91.90
72380;SHT30;60354;47.798;12.472;2024-01-07T05:28:08;1.99;92.10
72380;SHT30;60354;47.798;12.472;2024-01-07T05:30:34;2.01;92.06
72380;SHT30;60354;47.798;12.472;2024-01-07T05:32:59;2.05;91.99
72380;SHT30;60354;47.798;12.472;2024-01-07T05:35:25;1.98;92.15
72380;SHT30;60354;47.798;12.472;2024-01-07T05:37:50;2.02;92.50
72380;SHT30;60354;47.798;12.472;2024-01-07T05:40:16;2.02;92.19
72380;SHT30;60354;47.798;12.472;2024-01-07T05:42:41;2.01;92.04
72380;SHT30;60354;47.798;12.472;2024-01-07T05:45:07;2.03;91.45
72380;SHT30;60354;47.798;12.472;2024-01-07T05:47:32;2.06;91.79
72380;SHT30;60354;47.798;12.472;2024-01-07T05:49:58;2.05;92.07
72380;SHT30;60354;47.798;12.472;2024-01-07T05:52:23;2.06;92.05
72380;SHT30;60354;47.798;12.472;2024-01-07T05:54:49;2.09;91.52
72380;SHT30;60354;47.798;12.472;2024-01-07T05:57:14;2.03;91.87
72380;SHT30;60354;47.798;12.472;2024-01-07T05:59:40;2.05;91.90
72380;SHT30;60354;47.798;12.472;2024-01-07T06:02:05;2.01;92.12
72380;SHT30;60354;47.798;12.472;2024-01-07T06:04:31;2.03;92.13
72380;SHT30;60354;47.798;12.472;2024-01-07T06:06:56;2.01;91.94
72380;SHT30;60354;47.798;12.472;2024-01-07T06:09:22;2.02;92.02
72380;SHT30;60354;47.798;12.472;2024-01-07T06:11:47;1.99;92.22
72380;SHT30;60354;47.798;12.472;2024-01-07T06:14:13;1.98;92.26
72380;SHT30;60354;47.798;12.472;2024-01-07T06:16:39;1.96;91.96
72380;SHT30;60354;47.798;12.472;2024-01-07T06:19:04;1.95;92.48
72380;SHT30;60354;47.798;12.472;2024-01-07T06:21:30;1.98;92.20
72380;SHT30;60354;47.798;12.472;2024-01-07T06:23:55;1.98;92.44
72380;SHT30;60354;47.798;12.472;2024-01-07T06:26:20;1.94;92.30
72380;SHT30;60354;47.798;12.472;2024-01-07T06:28:46;1.94;92.40
72380;SHT30;60354;47.798;12.472;2024-01-07T06:31:11;1.86;92.83
72380;SHT30;60354;47.798;12.472;2024-01-07T06:33:37;1.86;92.82
72380;SHT30;60354;47.798;12.472;2024-01-07T06:36:02;1.74;92.99
72380;SHT30;60354;47.798;12.472;2024-01-07T06:38:29;1.75;93.39
72380;SHT30;60354;47.798;12.472;2024-01-07T06:40:55;1.76;93.37
72380;SHT30;60354;47.798;12.472;2024-01-07T06:43:21;1.76;93.21
72380;SHT30;60354;47.798;12.472;2024-01-07T06:45:46;1.82;93.37
72380;SHT30;60354;47.798;12.472;2024-01-07T06:48:12;1.86;92.91
72380;SHT30;60354;47.798;12.472;2024-01-07T06:50:37;1.85;92.81
72380;SHT30;60354;47.798;12.472;2024-01-07T06:53:03;1.83;93.16
72380;SHT30;60354;47.798;12.472;2024-01-07T06:55:28;1.86;92.93
72380;SHT30;60354;47.798;12.472;2024-01-07T06:57:54;1.88;92.84
72380;SHT30;60354;47.798;12.472;2024-01-07T07:00:19;1.92;92.77
72380;SHT30;60354;47.798;12.472;2024-01-07T07:02:45;1.94;92.69
72380;SHT30;60354;47.798;12.472;2024-01-07T07:05:10;1.98;92.37
72380;SHT30;60354;47.798;12.472;2024-01-07T07:07:36;1.94;92.37
72380;SHT30;60354;47.798;12.472;2024-01-07T07:10:02;1.92;92.41
72380;SHT30;60354;47.798;12.472;2024-01-07T07:12:27;1.89;92.48
72380;SHT30;60354;47.798;12.472;2024-01-07T07:14:53;1.91;92.91
72380;SHT30;60354;47.798;12.472;2024-01-07T07:17:18;1.88;92.75
72380;SHT30;60354;47.798;12.472;2024-01-07T07:19:44;1.88;92.61
72380;SHT30;60354;47.798;12.472;2024-01-07T07:22:09;1.89;92.60
72380;SHT30;60354;47.798;12.472;2024-01-07T07:24:35;1.88;92.77
72380;SHT30;60354;47.798;12.472;2024-01-07T07:27:00;1.96;92.77
72380;SHT30;60354;47.798;12.472;2024-01-07T07:29:25;1.92;92.11
72380;SHT30;60354;47.798;12.472;2024-01-07T07:31:51;1.99;92.53
72380;SHT30;60354;47.798;12.472;2024-01-07T07:34:16;1.98;92.48
72380;SHT30;60354;47.798;12.472;2024-01-07T07:36:42;1.98;92.11
72380;SHT30;60354;47.798;12.472;2024-01-07T07:39:10;1.95;92.31
72380;SHT30;60354;47.798;12.472;2024-01-07T07:41:35;1.98;92.11
72380;SHT30;60354;47.798;12.472;2024-01-07T07:44:01;1.99;92.24
72380;SHT30;60354;47.798;12.472;2024-01-07T07:46:26;2.02;92.04
72380;SHT30;60354;47.798;12.472;2024-01-07T07:48:52;2.01;92.54
72380;SHT30;60354;47.798;12.472;2024-01-07T07:51:17;1.99;92.45
72380;SHT30;60354;47.798;12.472;2024-01-07T07:53:43;1.95;92.39
72380;SHT30;60354;47.798;12.472;2024-01-07T07:56:08;1.92;92.64
72380;SHT30;60354;47.798;12.472;2024-01-07T07:58:34;1.98;92.39
72380;SHT30;60354;47.798;12.472;2024-01-07T08:00:59;1.99;92.36
72380;SHT30;60354;47.798;12.472;2024-01-07T08:03:25;3.18;92.95
72380;SHT30;60354;47.798;12.472;2024-01-07T08:05:50;2.70;89.63
72380;SHT30;60354;47.798;12.472;2024-01-07T08:08:16;2.51;90.29
72380;SHT30;60354;47.798;12.472;2024-01-07T08:10:44;2.47;90.79
72380;SHT30;60354;47.798;12.472;2024-01-07T08:13:09;2.29;90.93
72380;SHT30;60354;47.798;12.472;2024-01-07T08:15:35;2.25;91.21
72380;SHT30;60354;47.798;12.472;2024-01-07T08:18:01;2.23;92.24
72380;SHT30;60354;47.798;12.472;2024-01-07T08:20:27;2.16;91.74
72380;SHT30;60354;47.798;12.472;2024-01-07T08:22:53;2.17;91.56
72380;SHT30;60354;47.798;12.472;2024-01-07T08:25:18;2.27;91.23
72380;SHT30;60354;47.798;12.472;2024-01-07T08:27:44;2.25;91.32
72380;SHT30;60354;47.798;12.472;2024-01-07T08:30:10;2.17;91.40
72380;SHT30;60354;47.798;12.472;2024-01-07T08:32:39;2.17;91.72
72380;SHT30;60354;47.798;12.472;2024-01-07T08:35:05;2.13;91.62
72380;SHT30;60354;47.798;12.472;2024-01-07T08:37:30;2.12;91.69
72380;SHT30;60354;47.798;12.472;2024-01-07T08:39:56;2.01;92.14
72380;SHT30;60354;47.798;12.472;2024-01-07T08:42:21;2.03;92.17
72380;SHT30;60354;47.798;12.472;2024-01-07T08:44:47;2.01;92.26
72380;SHT30;60354;47.798;12.472;2024-01-07T08:47:13;2.03;92.16
72380;SHT30;60354;47.798;12.472;2024-01-07T08:49:38;2.05;92.06
72380;SHT30;60354;47.798;12.472;2024-01-07T08:52:04;2.05;92.41
72380;SHT30;60354;47.798;12.472;2024-01-07T08:54:30;2.12;91.65
72380;SHT30;60354;47.798;12.472;2024-01-07T08:56:55;2.13;91.53
72380;SHT30;60354;47.798;12.472;2024-01-07T08:59:21;2.12;91.55
72380;SHT30;60354;47.798;12.472;2024-01-07T09:01:47;2.12;91.53
72380;SHT30;60354;47.798;12.472;2024-01-07T09:04:12;2.07;91.53
72380;SHT30;60354;47.798;12.472;2024-01-07T09:06:38;2.05;92.01
72380;SHT30;60354;47.798;12.472;2024-01-07T09:09:03;1.99;92.36
72380;SHT30;60354;47.798;12.472;2024-01-07T09:11:32;2.05;92.47
72380;SHT30;60354;47.798;12.472;2024-01-07T09:13:57;2.03;92.32
72380;SHT30;60354;47.798;12.472;2024-01-07T09:16:23;2.07;91.96
72380;SHT30;60354;47.798;12.472;2024-01-07T09:18:48;2.12;91.96
72380;SHT30;60354;47.798;12.472;2024-01-07T09:21:14;2.15;91.88
72380;SHT30;60354;47.798;12.472;2024-01-07T09:23:40;2.23;91.75
72380;SHT30;60354;47.798;12.472;2024-01-07T09:26:07;2.17;91.60
72380;SHT30;60354;47.798;12.472;2024-01-07T09:28:32;2.10;91.80
72380;SHT30;60354;47.798;12.472;2024-01-07T09:30:58;2.17;91.49
72380;SHT30;60354;47.798;12.472;2024-01-07T09:33:23;2.10;91.82
72380;SHT30;60354;47.798;12.472;2024-01-07T09:35:52;2.12;91.95
72380;SHT30;60354;47.798;12.472;2024-01-07T09:38:19;2.20;91.92
72380;SHT30;60354;47.798;12.472;2024-01-07T09:40:45;2.23;91.45
72380;SHT30;60354;47.798;12.472;2024-01-07T09:43:11;2.20;91.74
72380;SHT30;60354;47.798;12.472;2024-01-07T09:45:38;2.16;91.79
72380;SHT30;60354;47.798;12.472;2024-01-07T09:48:05;2.20;91.71
72380;SHT30;60354;47.798;12.472;2024-01-07T09:50:30;2.25;91.45
72380;SHT30;60354;47.798;12.472;2024-01-07T09:52:56;2.29;91.40
72380;SHT30;60354;47.798;12.472;2024-01-07T09:55:33;2.30;91.29
72380;SHT30;60354;47.798;12.472;2024-01-07T09:58:00;2.32;91.04
72380;SHT30;60354;47.798;12.472;2024-01-07T10:00:27;2.32;90.98
72380;SHT30;60354;47.798;12.472;2024-01-07T10:02:53;2.36;90.84
72380;SHT30;60354;47.798;12.472;2024-01-07T10:05:19;2.44;90.68
72380;SHT30;60354;47.798;12.472;2024-01-07T10:07:44;2.50;90.22
72380;SHT30;60354;47.798;12.472;2024-01-07T10:10:17;2.50;89.97
72380;SHT30;60354;47.798;12.472;2024-01-07T10:12:46;2.60;89.99
72380;SHT30;60354;47.798;12.472;2024-01-07T10:15:12;2.56;89.93
72380;SHT30;60354;47.798;12.472;2024-01-07T10:17:38;2.60;90.13
72380;SHT30;60354;47.798;12.472;2024-01-07T10:20:05;2.44;90.55
72380;SHT30;60354;47.798;12.472;2024-01-07T10:22:36;2.47;90.78
72380;SHT30;60354;47.798;12.472;2024-01-07T10:25:02;2.40;90.81
72380;SHT30;60354;47.798;12.472;2024-01-07T10:27:28;2.32;91.02
72380;SHT30;60354;47.798;12.472;2024-01-07T10:29:53;2.38;91.33
72380;SHT30;60354;47.798;12.472;2024-01-07T10:32:20;2.46;90.90
72380;SHT30;60354;47.798;12.472;2024-01-07T10:34:46;2.38;90.68
72380;SHT30;60354;47.798;12.472;2024-01-07T10:37:12;2.48;91.04
72380;SHT30;60354;47.798;12.472;2024-01-07T10:39:38;2.50;90.74
72380;SHT30;60354;47.798;12.472;2024-01-07T10:42:04;2.50;90.59
72380;SHT30;60354;47.798;12.472;2024-01-07T10:44:31;2.56;90.57
72380;SHT30;60354;47.798;12.472;2024-01-07T10:46:57;2.50;89.95
72380;SHT30;60354;47.798;12.472;2024-01-07T10:49:25;2.48;90.46
72380;SHT30;60354;47.798;12.472;2024-01-07T10:52:11;2.48;90.66
72380;SHT30;60354;47.798;12.472;2024-01-07T10:54:36;2.47;90.95
72380;SHT30;60354;47.798;12.472;2024-01-07T10:59:37;2.38;91.06
72380;SHT30;60354;47.798;12.472;2024-01-07T11:02:04;2.37;90.93
72380;SHT30;60354;47.798;12.472;2024-01-07T11:04:40;2.37;91.00
72380;SHT30;60354;47.798;12.472;2024-01-07T11:07:19;2.41;91.10
72380;SHT30;60354;47.798;12.472;2024-01-07T11:12:22;2.51;90.64
72380;SHT30;60354;47.798;12.472;2024-01-07T11:14:48;2.50;90.52
72380;SHT30;60354;47.798;12.472;2024-01-07T11:20:06;2.53;90.67
72380;SHT30;60354;47.798;12.472;2024-01-07T11:22:32;2.51;90.49
72380;SHT30;60354;47.798;12.472;2024-01-07T11:24:59;2.50;90.42
72380;SHT30;60354;47.798;12.472;2024-01-07T11:27:26;2.51;90.67
72380;SHT30;60354;47.798;12.472;2024-01-07T11:29:58;2.50;90.70
72380;SHT30;60354;47.798;12.472;2024-01-07T11:32:24;2.48;90.89
72380;SHT30;60354;47.798;12.472;2024-01-07T11:34:53;2.47;90.77
72380;SHT30;60354;47.798;12.472;2024-01-07T11:37:22;2.46;90.71
72380;SHT30;60354;47.798;12.472;2024-01-07T11:39:55;2.54;90.66
72380;SHT30;60354;47.798;12.472;2024-01-07T11:42:21;2.60;90.45
72380;SHT30;60354;47.798;12.472;2024-01-07T11:44:54;2.62;90.13
72380;SHT30;60354;47.798;12.472;2024-01-07T11:47:22;2.54;90.62
72380;SHT30;60354;47.798;12.472;2024-01-07T11:49:48;2.57;90.64
72380;SHT30;60354;47.798;12.472;2024-01-07T11:52:17;2.50;90.37
72380;SHT30;60354;47.798;12.472;2024-01-07T11:54:43;2.40;90.60
72380;SHT30;60354;47.798;12.472;2024-01-07T11:57:10;2.36;91.13
72380;SHT30;60354;47.798;12.472;2024-01-07T11:59:36;2.34;90.55
72380;SHT30;60354;47.798;12.472;2024-01-07T12:02:03;2.26;91.20
72380;SHT30;60354;47.798;12.472;2024-01-07T12:04:32;2.29;91.23
72380;SHT30;60354;47.798;12.472;2024-01-07T12:06:58;2.20;91.48
72380;SHT30;60354;47.798;12.472;2024-01-07T12:09:24;2.23;91.45
72380;SHT30;60354;47.798;12.472;2024-01-07T12:11:50;2.27;91.25
72380;SHT30;60354;47.798;12.472;2024-01-07T12:14:16;2.34;91.45
72380;SHT30;60354;47.798;12.472;2024-01-07T12:16:42;2.40;90.68
72380;SHT30;60354;47.798;12.472;2024-01-07T12:19:09;2.41;91.05
72380;SHT30;60354;47.798;12.472;2024-01-07T12:21:35;2.41;90.64
72380;SHT30;60354;47.798;12.472;2024-01-07T12:24:01;2.38;90.98
72380;SHT30;60354;47.798;12.472;2024-01-07T12:26:27;2.33;90.90
72380;SHT30;60354;47.798;12.472;2024-01-07T12:28:54;2.41;90.95
72380;SHT30;60354;47.798;12.472;2024-01-07T12:31:20;2.38;90.69
72380;SHT30;60354;47.798;12.472;2024-01-07T12:33:47;2.38;90.84
72380;SHT30;60354;47.798;12.472;2024-01-07T12:36:12;2.44;90.39
72380;SHT30;60354;47.798;12.472;2024-01-07T12:38:38;2.44;90.19
72380;SHT30;60354;47.798;12.472;2024-01-07T12:41:04;2.50;90.52
72380;SHT30;60354;47.798;12.472;2024-01-07T12:43:30;2.53;90.27
72380;SHT30;60354;47.798;12.472;2024-01-07T12:45:55;2.44;90.71
72380;SHT30;60354;47.798;12.472;2024-01-07T12:48:22;2.43;90.64
72380;SHT30;60354;47.798;12.472;2024-01-07T12:50:48;2.44;90.88
72380;SHT30;60354;47.798;12.472;2024-01-07T12:53:14;2.38;91.01
72380;SHT30;60354;47.798;12.472;2024-01-07T12:55:39;2.40;90.62
72380;SHT30;60354;47.798;12.472;2024-01-07T12:58:05;2.23;90.73
72380;SHT30;60354;47.798;12.472;2024-01-07T13:00:31;2.19;91.76
72380;SHT30;60354;47.798;12.472;2024-01-07T13:02:57;2.15;91.79
72380;SHT30;60354;47.798;12.472;2024-01-07T13:05:22;2.19;91.87
72380;SHT30;60354;47.798;12.472;2024-01-07T13:07:49;2.23;91.88
72380;SHT30;60354;47.798;12.472;2024-01-07T13:10:15;2.16;91.32
72380;SHT30;60354;47.798;12.472;2024-01-07T13:12:41;2.15;91.71
72380;SHT30;60354;47.798;12.472;2024-01-07T13:15:07;2.19;91.69
72380;SHT30;60354;47.798;12.472;2024-01-07T13:17:32;2.17;91.53
72380;SHT30;60354;47.798;12.472;2024-01-07T13:20:01;2.17;91.43
72380;SHT30;60354;47.798;12.472;2024-01-07T13:22:27;2.12;90.98
72380;SHT30;60354;47.798;12.472;2024-01-07T13:24:52;2.16;90.97
72380;SHT30;60354;47.798;12.472;2024-01-07T13:27:20;2.13;91.71
72380;SHT30;60354;47.798;12.472;2024-01-07T13:29:48;2.13;91.66
72380;SHT30;60354;47.798;12.472;2024-01-07T13:32:14;2.13;91.58
72380;SHT30;60354;47.798;12.472;2024-01-07T13:34:43;1.98;91.58
72380;SHT30;60354;47.798;12.472;2024-01-07T13:37:09;1.92;92.36
72380;SHT30;60354;47.798;12.472;2024-01-07T13:39:35;1.89;92.71
72380;SHT30;60354;47.798;12.472;2024-01-07T13:42:01;1.88;93.05
72380;SHT30;60354;47.798;12.472;2024-01-07T13:44:26;1.89;92.76
72380;SHT30;60354;47.798;12.472;2024-01-07T13:46:52;1.91;92.29
72380;SHT30;60354;47.798;12.472;2024-01-07T13:49:18;1.96;92.36
72380;SHT30;60354;47.798;12.472;2024-01-07T13:51:44;1.98;92.14
72380;SHT30;60354;47.798;12.472;2024-01-07T13:54:09;2.02;91.95
72380;SHT30;60354;47.798;12.472;2024-01-07T13:56:43;1.96;91.53
72380;SHT30;60354;47.798;12.472;2024-01-07T13:59:10;1.89;92.21
72380;SHT30;60354;47.798;12.472;2024-01-07T14:01:36;1.96;92.47
72380;SHT30;60354;47.798;12.472;2024-01-07T14:04:05;1.83;92.28
72380;SHT30;60354;47.798;12.472;2024-01-07T14:06:31;1.76;92.62
72380;SHT30;60354;47.798;12.472;2024-01-07T14:08:57;1.83;92.79
72380;SHT30;60354;47.798;12.472;2024-01-07T14:11:23;1.57;93.13
72380;SHT30;60354;47.798;12.472;2024-01-07T14:13:49;1.68;94.33
72380;SHT30;60354;47.798;12.472;2024-01-07T14:16:15;1.89;94.17
72380;SHT30;60354;47.798;12.472;2024-01-07T14:18:40;1.81;92.75
72380;SHT30;60354;47.798;12.472;2024-01-07T14:21:06;1.62;92.92
72380;SHT30;60354;47.798;12.472;2024-01-07T14:23:32;1.58;93.16
72380;SHT30;60354;47.798;12.472;2024-01-07T14:25:59;1.54;93.47
72380;SHT30;60354;47.798;12.472;2024-01-07T14:28:25;1.59;93.37
72380;SHT30;60354;47.798;12.472;2024-01-07T14:30:50;1.51;93.14
72380;SHT30;60354;47.798;12.472;2024-01-07T14:33:16;1.59;93.36
72380;SHT30;60354;47.798;12.472;2024-01-07T14:35:41;1.52;93.22
72380;SHT30;60354;47.798;12.472;2024-01-07T14:38:07;1.52;93.40
72380;SHT30;60354;47.798;12.472;2024-01-07T14:40:32;1.45;93.69
72380;SHT30;60354;47.798;12.472;2024-01-07T14:42:58;1.43;93.80
72380;SHT30;60354;47.798;12.472;2024-01-07T14:45:27;1.52;93.20
72380;SHT30;60354;47.798;12.472;2024-01-07T14:47:52;1.47;93.35
72380;SHT30;60354;47.798;12.472;2024-01-07T14:50:18;1.41;93.75
72380;SHT30;60354;47.798;12.472;2024-01-07T14:52:44;1.37;93.76
72380;SHT30;60354;47.798;12.472;2024-01-07T14:55:10;1.22;93.56
72380;SHT30;60354;47.798;12.472;2024-01-07T14:57:36;1.45;93.48
72380;SHT30;60354;47.798;12.472;2024-01-07T15:00:02;1.28;92.88
72380;SHT30;60354;47.798;12.472;2024-01-07T15:02:28;1.23;93.74
72380;SHT30;60354;47.798;12.472;2024-01-07T15:04:54;1.19;93.86
72380;SHT30;60354;47.798;12.472;2024-01-07T15:07:20;1.27;93.91
72380;SHT30;60354;47.798;12.472;2024-01-07T15:09:45;1.16;93.53
72380;SHT30;60354;47.798;12.472;2024-01-07T15:12:11;1.12;93.94
72380;SHT30;60354;47.798;12.472;2024-01-07T15:14:36;1.12;94.36
72380;SHT30;60354;47.798;12.472;2024-01-07T15:17:02;1.17;94.52
72380;SHT30;60354;47.798;12.472;2024-01-07T15:19:28;1.14;94.46
72380;SHT30;60354;47.798;12.472;2024-01-07T15:21:55;1.22;94.22
72380;SHT30;60354;47.798;12.472;2024-01-07T15:24:20;1.23;94.19
72380;SHT30;60354;47.798;12.472;2024-01-07T15:26:46;1.19;94.38
72380;SHT30;60354;47.798;12.472;2024-01-07T15:29:11;1.24;94.74
72380;SHT30;60354;47.798;12.472;2024-01-07T15:31:37;1.23;94.29